This is the latest recevied weather packets stored in our database for station/object OK1FET-1. If no packets are shown the sender has not sent any weather packets the latest 10 day(s).
| Time | Temp. | Humidity | Pressure | Rain* | Wind** | Luminosity | Snow |
|---|---|---|---|---|---|---|---|
| 1788412390 | 14.44° C | 89% | 1025.7 hPa | - | - | - | - |
| 1788411182 | 12.78° C | 92% | 1025.5 hPa | - | - | - | - |
| 1788410578 | 12.78° C | 92% | 1025.5 hPa | - | - | - | - |
| 1788409371 | 12.78° C | 91% | 1025.6 hPa | - | - | - | - |
| 1788408767 | 13.33° C | 90% | 1025.4 hPa | - | - | - | - |
| 1788407559 | 13.33° C | 89% | 1025.3 hPa | - | - | - | - |
| 1788405143 | 13.89° C | 88% | 1025.4 hPa | - | - | - | - |
| 1788404539 | 13.89° C | 88% | 1025.4 hPa | - | - | - | - |
| 1788403935 | 14.44° C | 87% | 1025.5 hPa | - | - | - | - |
| 1788403331 | 13.89° C | 88% | 1025.4 hPa | - | - | - | - |
| 1788380977 | 16.11° C | 82% | 1025.1 hPa | - | - | - | - |
| 1788380373 | 16.67° C | 81% | 1025.1 hPa | - | - | - | - |
| 1788379768 | 16.67° C | 80% | 1025.1 hPa | - | - | - | - |
| 1788378560 | 16.67° C | 80% | 1025 hPa | - | - | - | - |
| 1788377955 | 16.67° C | 79% | 1025.1 hPa | - | - | - | - |
| 1788377351 | 16.67° C | 80% | 1025 hPa | - | - | - | - |
| 1788376746 | 16.67° C | 79% | 1025 hPa | - | - | - | - |
| 1788376142 | 16.67° C | 79% | 1024.9 hPa | - | - | - | - |
| 1788374329 | 16.11° C | 81% | 1024.7 hPa | - | - | - | - |
| 1788373725 | 16.11° C | 80% | 1024.8 hPa | - | - | - | - |
| 1788373121 | 17.22° C | 75% | 1024.8 hPa | - | - | - | - |
| 1788372516 | 16.67° C | 76% | 1024.4 hPa | - | - | - | - |
| 1788370702 | 17.22° C | 79% | 1024.4 hPa | - | - | - | - |
| 1788370098 | 17.22° C | 74% | 1024.3 hPa | - | - | - | - |
| 1788369493 | 17.22° C | 68% | 1024.6 hPa | - | - | - | - |
* Rain since midnight (hover to see other rain measurements)
** Current wind speed in m/s (hover to see current wind gust speed)